Time;durP1;ratioP1;P1;durP2;ratioP2;P2;SDS_P1;SDS_P2;PMS_P1;PMS_P2;Temp;Humidity;BMP_temperature;BMP_pressure;BME280_temperature;BME280_humidity;BME280_pressure;Samples;Min_cycle;Max_cycle;Signal;HPM_P1;HPM_P2
2021/05/15 00:00:44;;;;;;;4.70;1.20;;;11.30;99.90;;;;;;4972184;28;20392;-51
2021/05/15 00:03:10;;;;;;;4.15;1.10;;;11.30;99.90;;;;;;4972516;28;20384;-51
2021/05/15 00:05:36;;;;;;;4.10;1.30;;;11.20;99.90;;;;;;4971899;28;20430;-51
2021/05/15 00:08:03;;;;;;;3.65;1.10;;;11.20;99.90;;;;;;4972392;28;20385;-52
2021/05/15 00:10:31;;;;;;;3.90;1.05;;;11.10;99.90;;;;;;4972134;28;20411;-51
2021/05/15 00:12:56;;;;;;;3.40;1.00;;;11.00;99.90;;;;;;4972869;28;20380;-54
2021/05/15 00:15:22;;;;;;;3.75;1.10;;;11.00;99.90;;;;;;4972488;28;20454;-48
2021/05/15 00:17:48;;;;;;;3.40;1.00;;;10.90;99.90;;;;;;4971341;28;20902;-49
2021/05/15 00:20:15;;;;;;;5.18;1.10;;;10.80;99.90;;;;;;4972318;28;20420;-49
2021/05/15 00:22:42;;;;;;;3.90;1.20;;;10.80;99.90;;;;;;4971740;28;20917;-49
2021/05/15 00:25:10;;;;;;;3.45;1.05;;;10.80;99.90;;;;;;4972022;28;20439;-49
2021/05/15 00:27:36;;;;;;;5.13;1.10;;;10.70;99.90;;;;;;4971296;28;20428;-50
2021/05/15 00:30:13;;;;;;;3.43;1.00;;;10.70;99.90;;;;;;4971107;28;20408;-49
2021/05/15 00:32:39;;;;;;;4.35;1.20;;;10.70;99.90;;;;;;4971200;28;20392;-49
2021/05/15 00:35:06;;;;;;;3.67;1.20;;;10.70;99.90;;;;;;4971850;28;20443;-49
2021/05/15 00:37:31;;;;;;;3.60;1.10;;;10.60;99.90;;;;;;4971859;28;20392;-62
2021/05/15 00:39:57;;;;;;;4.47;1.20;;;10.60;99.90;;;;;;4971280;28;20403;-50
2021/05/15 00:42:23;;;;;;;3.77;1.37;;;10.60;99.90;;;;;;4971922;28;20434;-49
2021/05/15 00:44:49;;;;;;;3.90;1.30;;;10.50;99.90;;;;;;4971202;28;20396;-49
2021/05/15 00:47:20;;;;;;;4.40;1.35;;;10.50;99.90;;;;;;4972229;28;20761;-49
2021/05/15 00:49:47;;;;;;;3.80;1.20;;;10.50;99.90;;;;;;4971286;28;20760;-49
2021/05/15 00:52:13;;;;;;;4.30;1.30;;;10.50;99.90;;;;;;4971909;28;20400;-49
2021/05/15 00:54:40;;;;;;;3.72;1.20;;;10.40;99.90;;;;;;4971109;28;20392;-49
2021/05/15 00:57:08;;;;;;;3.92;1.30;;;10.50;99.90;;;;;;4971624;28;20420;-49
2021/05/15 00:59:34;;;;;;;4.70;1.10;;;10.30;99.90;;;;;;4970942;28;20463;-62
2021/05/15 01:02:00;;;;;;;4.30;1.25;;;10.20;99.90;;;;;;4971604;28;20864;-49
2021/05/15 01:04:27;;;;;;;3.90;1.20;;;10.20;99.90;;;;;;4971741;28;20447;-49
2021/05/15 01:06:52;;;;;;;5.13;1.42;;;10.20;99.90;;;;;;4970875;28;20471;-55
2021/05/15 01:09:19;;;;;;;3.57;1.20;;;10.20;99.90;;;;;;4971627;28;20412;-49
2021/05/15 01:11:44;;;;;;;4.28;1.30;;;10.10;99.90;;;;;;4970895;28;20414;-52
2021/05/15 01:14:10;;;;;;;5.80;1.40;;;10.10;99.90;;;;;;4971764;28;20980;-49
2021/05/15 01:16:36;;;;;;;3.60;1.20;;;10.00;99.90;;;;;;4970872;28;20380;-50
2021/05/15 01:19:04;;;;;;;4.15;1.17;;;9.90;99.90;;;;;;4971459;28;20439;-49
2021/05/15 01:21:30;;;;;;;3.58;1.10;;;9.90;99.90;;;;;;4971637;28;20385;-49
2021/05/15 01:23:56;;;;;;;3.50;1.20;;;9.90;99.90;;;;;;4969882;28;20504;-50
2021/05/15 01:26:24;;;;;;;5.40;1.40;;;9.80;99.90;;;;;;4971179;28;20495;-50
2021/05/15 01:28:53;;;;;;;3.58;1.05;;;9.80;99.90;;;;;;4970310;28;20403;-53
2021/05/15 01:31:20;;;;;;;3.90;1.30;;;9.70;99.90;;;;;;4971176;28;20403;-51
2021/05/15 01:33:47;;;;;;;4.30;1.50;;;9.80;99.90;;;;;;4970381;28;20416;-51
2021/05/15 01:36:13;;;;;;;3.50;1.10;;;9.80;99.90;;;;;;4971313;28;20479;-50
2021/05/15 01:38:39;;;;;;;4.03;1.40;;;9.90;99.90;;;;;;4970730;28;20972;-49
2021/05/15 01:41:07;;;;;;;3.70;1.20;;;9.80;99.90;;;;;;4971162;28;20474;-49
2021/05/15 01:43:33;;;;;;;3.90;1.30;;;9.80;99.90;;;;;;4971159;28;20392;-61
2021/05/15 01:45:59;;;;;;;3.90;1.40;;;9.80;99.90;;;;;;4970478;28;20424;-51
2021/05/15 01:48:25;;;;;;;3.80;1.30;;;9.80;99.90;;;;;;4953955;28;20897;-49
2021/05/15 01:50:58;;;;;;;3.45;1.20;;;9.70;99.90;;;;;;4970314;28;20388;-49
2021/05/15 01:53:25;;;;;;;4.53;1.23;;;9.70;99.90;;;;;;4971378;28;20471;-50
2021/05/15 01:55:52;;;;;;;3.33;1.25;;;9.60;99.90;;;;;;4970449;28;20381;-49
2021/05/15 01:58:17;;;;;;;4.22;1.30;;;9.50;99.90;;;;;;4971016;28;20408;-49
2021/05/15 02:00:43;;;;;;;3.63;1.25;;;9.40;99.90;;;;;;4970466;28;20401;-49
2021/05/15 02:03:09;;;;;;;5.03;1.37;;;9.40;99.90;;;;;;4970926;28;20482;-49
2021/05/15 02:05:35;;;;;;;4.00;1.10;;;9.40;99.90;;;;;;4969954;28;20430;-62
2021/05/15 02:08:00;;;;;;;3.93;1.60;;;9.40;99.90;;;;;;4970537;28;20388;-49
2021/05/15 02:10:26;;;;;;;4.15;1.10;;;9.50;99.90;;;;;;4970667;28;20774;-49
2021/05/15 02:12:51;;;;;;;3.20;1.03;;;9.50;99.90;;;;;;4969989;28;20455;-49
2021/05/15 02:15:17;;;;;;;4.70;1.20;;;9.60;99.90;;;;;;4970934;28;20384;-55
2021/05/15 02:17:43;;;;;;;3.40;1.00;;;9.60;99.90;;;;;;4969857;28;20826;-49
2021/05/15 02:20:09;;;;;;;4.47;1.10;;;9.70;99.90;;;;;;4970856;28;20398;-52
2021/05/15 02:22:35;;;;;;;4.95;1.60;;;9.70;99.90;;;;;;4970494;28;20416;-61
2021/05/15 02:25:00;;;;;;;4.80;1.20;;;9.80;99.90;;;;;;4970302;28;20412;-49
2021/05/15 02:27:26;;;;;;;3.80;1.10;;;9.80;99.90;;;;;;4970705;28;20752;-49
2021/05/15 02:29:52;;;;;;;3.50;1.20;;;9.90;99.90;;;;;;4969759;28;20416;-49
2021/05/15 02:32:17;;;;;;;4.03;1.40;;;9.90;99.90;;;;;;4970299;28;20423;-49
2021/05/15 02:34:43;;;;;;;4.38;1.30;;;9.80;99.90;;;;;;4971852;28;20380;-49
2021/05/15 02:37:08;;;;;;;3.60;1.20;;;9.80;99.90;;;;;;4974278;28;20734;-49
2021/05/15 02:39:34;;;;;;;3.72;1.13;;;9.70;99.90;;;;;;4974107;28;21264;-60
2021/05/15 02:42:00;;;;;;;3.60;1.10;;;9.70;99.90;;;;;;4973856;28;20387;-50
2021/05/15 02:44:26;;;;;;;5.40;1.50;;;9.60;99.90;;;;;;4974435;28;20389;-49
2021/05/15 02:46:51;;;;;;;3.60;1.10;;;9.70;99.90;;;;;;4973419;28;20426;-49
2021/05/15 02:49:17;;;;;;;4.43;1.10;;;9.70;99.90;;;;;;4974390;28;20989;-49
2021/05/15 02:51:43;;;;;;;4.00;1.30;;;9.70;99.90;;;;;;4973078;28;20392;-49
2021/05/15 02:54:08;;;;;;;3.60;1.20;;;9.60;99.90;;;;;;4974097;28;20872;-49
2021/05/15 02:56:34;;;;;;;3.50;1.20;;;9.40;99.90;;;;;;4973203;28;20483;-60
2021/05/15 02:59:00;;;;;;;3.67;1.43;;;9.20;99.90;;;;;;4973256;28;20400;-49
2021/05/15 03:01:26;;;;;;;4.55;1.50;;;9.20;99.90;;;;;;4973525;28;20424;-48
2021/05/15 03:03:51;;;;;;;3.70;1.30;;;9.10;99.90;;;;;;4973042;28;20475;-49
2021/05/15 03:06:17;;;;;;;4.70;1.60;;;9.00;99.90;;;;;;4973350;28;20502;-50
2021/05/15 03:08:43;;;;;;;3.73;1.40;;;8.90;99.90;;;;;;4973018;28;20880;-49
2021/05/15 03:11:08;;;;;;;3.70;1.30;;;8.80;99.90;;;;;;4973597;28;20421;-49
2021/05/15 03:13:34;;;;;;;3.90;1.40;;;8.90;99.90;;;;;;4973698;28;20809;-50
2021/05/15 03:16:00;;;;;;;3.80;1.30;;;8.90;99.90;;;;;;4956098;28;20396;-53
2021/05/15 03:18:25;;;;;;;4.60;1.70;;;8.90;99.90;;;;;;4973676;28;20674;-49
2021/05/15 03:20:51;;;;;;;4.30;1.70;;;8.80;99.90;;;;;;4972615;28;21018;-49
2021/05/15 03:23:17;;;;;;;5.10;1.60;;;8.80;99.90;;;;;;4973433;28;20396;-49
2021/05/15 03:25:42;;;;;;;4.50;1.50;;;8.80;99.90;;;;;;4972849;28;20753;-49
2021/05/15 03:28:08;;;;;;;4.50;1.77;;;8.70;99.90;;;;;;4972982;28;20940;-50
2021/05/15 03:30:34;;;;;;;4.80;1.60;;;8.70;99.90;;;;;;4973395;28;20480;-50
2021/05/15 03:32:59;;;;;;;5.35;1.63;;;8.60;99.90;;;;;;4972688;28;20403;-50
2021/05/15 03:35:26;;;;;;;4.97;1.70;;;8.60;99.90;;;;;;4973315;28;20395;-50
2021/05/15 03:37:52;;;;;;;4.30;1.80;;;8.60;99.90;;;;;;4972448;28;20399;-49
2021/05/15 03:40:18;;;;;;;4.67;1.70;;;8.70;99.90;;;;;;4973034;28;20392;-49
2021/05/15 03:42:43;;;;;;;4.95;1.60;;;8.80;99.90;;;;;;4972172;28;20399;-49
2021/05/15 03:45:09;;;;;;;5.72;1.80;;;8.80;99.90;;;;;;4972619;28;20395;-49
2021/05/15 03:47:36;;;;;;;4.60;1.77;;;8.80;99.90;;;;;;4972623;28;20507;-55
2021/05/15 03:50:03;;;;;;;4.38;1.50;;;8.90;99.90;;;;;;4972229;28;20387;-49
2021/05/15 03:52:28;;;;;;;4.93;1.98;;;8.90;99.90;;;;;;4972785;28;20428;-49
2021/05/15 03:54:54;;;;;;;5.70;1.60;;;8.90;99.90;;;;;;4972452;28;20424;-49
2021/05/15 03:57:20;;;;;;;5.90;1.50;;;9.00;99.90;;;;;;4972778;28;20863;-49
2021/05/15 03:59:45;;;;;;;5.38;2.00;;;9.00;99.90;;;;;;4972169;28;21012;-51
2021/05/15 04:02:11;;;;;;;4.00;1.60;;;9.10;99.90;;;;;;4973136;28;20424;-49
2021/05/15 04:04:37;;;;;;;4.35;1.60;;;9.30;99.90;;;;;;4972348;28;21078;-62
2021/05/15 04:07:04;;;;;;;4.40;1.80;;;9.30;99.90;;;;;;4972266;28;20918;-50
2021/05/15 04:09:29;;;;;;;4.82;1.90;;;9.40;99.90;;;;;;4972727;28;20396;-52
2021/05/15 04:11:55;;;;;;;4.30;1.50;;;9.50;99.90;;;;;;4971904;28;20389;-49
2021/05/15 04:14:32;;;;;;;4.37;1.90;;;9.60;99.90;;;;;;4972638;28;20389;-55
2021/05/15 04:19:27;;;;;;;3.60;1.33;;;9.80;99.90;;;;;;4972388;28;20380;-53
2021/05/15 04:21:53;;;;;;;5.60;1.50;;;9.90;99.90;;;;;;4971631;28;20391;-50
2021/05/15 04:24:19;;;;;;;4.00;1.50;;;10.00;99.90;;;;;;4972324;28;20392;-49
2021/05/15 04:26:45;;;;;;;5.83;1.57;;;10.20;99.90;;;;;;4953803;28;20424;-49
2021/05/15 04:29:10;;;;;;;4.60;1.50;;;10.30;99.90;;;;;;4972146;28;20412;-49
2021/05/15 04:31:36;;;;;;;3.43;1.20;;;10.50;99.90;;;;;;4971968;28;20955;-49
2021/05/15 04:34:02;;;;;;;4.22;1.50;;;10.60;99.90;;;;;;4971119;28;20883;-49
2021/05/15 04:36:27;;;;;;;3.90;1.40;;;10.70;99.90;;;;;;4971816;28;20400;-49
2021/05/15 04:38:53;;;;;;;5.10;1.70;;;10.80;99.90;;;;;;4970610;28;20407;-50
2021/05/15 04:41:20;;;;;;;4.20;1.40;;;10.70;99.90;;;;;;4971742;28;20385;-49
2021/05/15 04:43:46;;;;;;;4.18;1.20;;;10.60;99.90;;;;;;4971202;28;20400;-49
2021/05/15 04:46:12;;;;;;;4.00;1.30;;;10.60;99.90;;;;;;4971883;28;20500;-49
2021/05/15 04:48:38;;;;;;;4.78;1.50;;;10.70;99.90;;;;;;4971492;28;20392;-63
2021/05/15 04:51:05;;;;;;;3.80;1.20;;;10.80;99.90;;;;;;4971107;28;20383;-49
2021/05/15 04:53:30;;;;;;;5.03;1.30;;;10.80;99.90;;;;;;4971465;28;20788;-50
2021/05/15 04:55:56;;;;;;;3.43;1.20;;;10.90;99.90;;;;;;4971095;28;20446;-49
2021/05/15 04:58:21;;;;;;;5.20;1.60;;;10.90;99.90;;;;;;4971632;28;20392;-49
2021/05/15 05:00:47;;;;;;;4.20;1.50;;;10.90;99.90;;;;;;4953359;28;20906;-54
2021/05/15 05:03:16;;;;;;;4.90;1.60;;;11.00;99.90;;;;;;4971565;28;20411;-49
2021/05/15 05:05:42;;;;;;;3.90;1.65;;;11.10;99.90;;;;;;4953256;28;20471;-50
2021/05/15 05:08:08;;;;;;;3.45;1.10;;;11.00;99.90;;;;;;4971747;28;20384;-49
2021/05/15 05:10:33;;;;;;;3.80;1.30;;;11.10;99.90;;;;;;4971662;28;20396;-49
2021/05/15 05:13:04;;;;;;;4.18;1.27;;;11.10;99.90;;;;;;4970103;28;20384;-50
2021/05/15 05:15:29;;;;;;;4.15;1.48;;;11.20;99.90;;;;;;4971337;28;20392;-50
2021/05/15 05:17:55;;;;;;;6.00;1.50;;;11.30;99.90;;;;;;4970078;28;20825;-50
2021/05/15 05:20:21;;;;;;;3.88;1.30;;;11.40;99.90;;;;;;4971014;28;20785;-49
2021/05/15 05:22:46;;;;;;;4.60;1.60;;;11.60;99.90;;;;;;4970705;28;20817;-50
2021/05/15 05:25:13;;;;;;;4.00;1.20;;;11.70;99.90;;;;;;4971083;28;20427;-50
2021/05/15 05:27:45;;;;;;;4.00;1.20;;;11.90;99.90;;;;;;4969519;28;20424;-63
2021/05/15 05:30:12;;;;;;;4.45;1.23;;;11.90;99.90;;;;;;4971329;28;20392;-50
2021/05/15 05:32:38;;;;;;;3.53;1.10;;;11.90;99.90;;;;;;4970187;28;20407;-51
2021/05/15 05:35:04;;;;;;;3.90;1.10;;;11.90;99.90;;;;;;4970232;28;20403;-49
2021/05/15 05:37:29;;;;;;;3.83;1.10;;;12.20;99.90;;;;;;4971450;28;20503;-50
2021/05/15 05:39:55;;;;;;;4.53;1.20;;;12.50;99.90;;;;;;4970106;28;20475;-50
2021/05/15 05:42:21;;;;;;;4.68;1.20;;;13.70;99.90;;;;;;4971056;28;20400;-50
2021/05/15 05:44:46;;;;;;;3.80;1.00;;;15.40;99.90;;;;;;4970670;28;20709;-51
2021/05/15 05:47:12;;;;;;;4.40;1.13;;;16.80;99.90;;;;;;4970862;28;20416;-50
2021/05/15 05:49:38;;;;;;;4.30;1.00;;;16.70;99.90;;;;;;4965738;28;20396;-56
2021/05/15 05:52:04;;;;;;;4.20;1.20;;;15.70;99.90;;;;;;4954352;28;20440;-61
2021/05/15 05:54:30;;;;;;;3.97;1.13;;;15.10;99.90;;;;;;4957724;28;20444;-51
2021/05/15 05:56:56;;;;;;;4.30;1.20;;;14.50;99.90;;;;;;4955980;28;20885;-50
2021/05/15 05:59:21;;;;;;;3.97;1.50;;;14.40;99.90;;;;;;4958247;28;20388;-51
2021/05/15 06:01:47;;;;;;;3.90;1.17;;;15.30;99.90;;;;;;4957559;28;20809;-50
2021/05/15 06:04:12;;;;;;;4.50;1.17;;;15.80;99.90;;;;;;4961565;28;20489;-50
2021/05/15 06:06:38;;;;;;;3.70;1.20;;;15.70;99.90;;;;;;4960565;28;20449;-56
2021/05/15 06:09:04;;;;;;;4.60;1.30;;;15.10;99.90;;;;;;4961061;28;20471;-52
2021/05/15 06:11:30;;;;;;;3.80;1.10;;;14.60;99.90;;;;;;4962833;28;20914;-49
2021/05/15 06:13:56;;;;;;;4.40;1.10;;;14.30;99.90;;;;;;4961930;28;20390;-50
2021/05/15 06:16:22;;;;;;;4.32;1.00;;;14.90;99.90;;;;;;4964316;28;20409;-50
2021/05/15 06:18:47;;;;;;;3.90;1.27;;;15.40;99.90;;;;;;4962007;28;20481;-51
2021/05/15 06:21:13;;;;;;;5.10;1.10;;;15.20;99.90;;;;;;4968974;28;20872;-51
2021/05/15 06:23:39;;;;;;;3.65;1.35;;;14.80;99.90;;;;;;4957384;28;20397;-63
2021/05/15 06:26:09;;;;;;;3.80;1.00;;;14.90;99.90;;;;;;4967897;28;20448;-54
2021/05/15 06:28:35;;;;;;;7.28;1.20;;;16.10;99.90;;;;;;4954672;29;20440;-50
2021/05/15 06:31:03;;;;;;;4.03;1.00;;;17.80;99.90;;;;;;4965892;28;21044;-51
2021/05/15 06:33:29;;;;;;;3.50;0.80;;;19.30;99.90;;;;;;4957625;28;20405;-51
2021/05/15 06:35:55;;;;;;;3.58;0.90;;;19.90;99.70;;;;;;4951366;29;20766;-54
2021/05/15 06:38:20;;;;;;;5.30;1.10;;;18.90;99.00;;;;;;4960835;28;20420;-51
2021/05/15 06:40:46;;;;;;;4.80;1.10;;;17.90;99.90;;;;;;4962397;28;20948;-49
2021/05/15 06:43:11;;;;;;;4.50;1.10;;;16.90;99.90;;;;;;4956525;28;20433;-49
2021/05/15 06:45:37;;;;;;;5.00;1.33;;;17.10;99.90;;;;;;4946937;28;20904;-50
2021/05/15 06:48:03;;;;;;;4.50;1.42;;;16.70;99.90;;;;;;4958904;28;20449;-59
2021/05/15 06:50:29;;;;;;;5.20;1.23;;;16.30;99.90;;;;;;4960129;28;20414;-56
2021/05/15 06:52:55;;;;;;;4.05;1.10;;;16.40;99.90;;;;;;4957482;28;20388;-56
2021/05/15 06:55:21;;;;;;;4.30;1.40;;;16.40;99.90;;;;;;4965292;28;20397;-56
2021/05/15 06:57:47;;;;;;;3.78;1.02;;;15.90;99.90;;;;;;4947336;28;20503;-56
2021/05/15 07:00:13;;;;;;;6.20;1.60;;;15.30;99.90;;;;;;4958102;28;20474;-56
2021/05/15 07:02:39;;;;;;;3.95;1.08;;;15.40;99.90;;;;;;4957479;28;20456;-70
2021/05/15 07:05:05;;;;;;;6.23;1.70;;;15.50;99.90;;;;;;4966751;28;20794;-56
2021/05/15 07:07:31;;;;;;;3.70;1.10;;;15.10;99.90;;;;;;4963029;28;20428;-56
2021/05/15 07:09:57;;;;;;;4.50;1.20;;;15.10;99.90;;;;;;4959196;28;20424;-56
2021/05/15 07:12:24;;;;;;;4.82;1.50;;;14.70;99.90;;;;;;4969879;28;20411;-56
2021/05/15 07:14:50;;;;;;;5.20;1.50;;;14.30;99.90;;;;;;4958483;28;20397;-57
2021/05/15 07:17:16;;;;;;;4.63;1.35;;;14.40;99.90;;;;;;4962679;28;20930;-56
2021/05/15 07:19:41;;;;;;;4.28;1.30;;;14.30;99.90;;;;;;4963326;28;20479;-72
2021/05/15 07:22:07;;;;;;;4.30;1.17;;;14.10;99.90;;;;;;4959554;28;20384;-57
2021/05/15 07:24:33;;;;;;;4.90;1.20;;;14.20;99.90;;;;;;4958106;28;20434;-59
2021/05/15 07:26:59;;;;;;;3.97;1.30;;;14.30;99.90;;;;;;4962965;28;20451;-57
2021/05/15 07:29:24;;;;;;;4.68;1.10;;;14.40;99.90;;;;;;4972768;28;20450;-57
2021/05/15 07:31:50;;;;;;;3.90;1.20;;;14.20;99.90;;;;;;4972232;28;20423;-58
2021/05/15 07:34:15;;;;;;;3.83;1.10;;;14.10;99.90;;;;;;4973220;28;20379;-56
2021/05/15 07:36:41;;;;;;;5.28;1.30;;;14.20;99.90;;;;;;4972352;28;20408;-70
2021/05/15 07:39:07;;;;;;;4.43;1.27;;;14.40;99.90;;;;;;4972139;28;20864;-56
2021/05/15 07:41:33;;;;;;;4.30;1.20;;;14.40;99.90;;;;;;4955165;28;20521;-56
2021/05/15 07:43:58;;;;;;;4.30;1.40;;;14.40;99.90;;;;;;4952318;29;20535;-59
2021/05/15 07:46:24;;;;;;;4.30;1.17;;;14.70;99.90;;;;;;4953667;29;20418;-56
2021/05/15 07:48:50;;;;;;;3.50;1.10;;;14.90;99.90;;;;;;4934901;29;20408;-61
2021/05/15 07:51:21;;;;;;;3.70;1.10;;;15.50;99.90;;;;;;4952538;29;20376;-57
2021/05/15 07:53:51;;;;;;;4.20;1.20;;;16.10;99.90;;;;;;4952565;29;20854;-57
2021/05/15 07:56:17;;;;;;;6.85;1.13;;;16.40;99.90;;;;;;4961338;28;20407;-56
2021/05/15 07:58:44;;;;;;;4.30;1.25;;;16.10;99.90;;;;;;4971629;28;20395;-70
2021/05/15 08:01:10;;;;;;;3.90;1.10;;;15.50;99.90;;;;;;4966700;28;20398;-57
2021/05/15 08:03:36;;;;;;;6.20;1.10;;;15.60;99.90;;;;;;4961190;28;20447;-57
2021/05/15 08:06:02;;;;;;;4.63;1.30;;;16.00;99.90;;;;;;4951874;29;20444;-60
2021/05/15 08:08:27;;;;;;;4.40;1.10;;;16.30;99.90;;;;;;4952728;29;20995;-56
2021/05/15 08:10:53;;;;;;;3.83;0.90;;;16.10;99.90;;;;;;4958897;28;20790;-56
2021/05/15 08:13:19;;;;;;;5.05;1.08;;;15.30;99.90;;;;;;4961185;28;20435;-56
2021/05/15 08:15:45;;;;;;;3.90;1.20;;;15.40;99.90;;;;;;4962235;28;20393;-69
2021/05/15 08:18:11;;;;;;;4.63;1.08;;;15.40;99.90;;;;;;4961920;28;20907;-56
2021/05/15 08:20:37;;;;;;;4.25;1.30;;;15.50;99.90;;;;;;4953193;28;20398;-50
2021/05/15 08:23:03;;;;;;;4.87;1.20;;;15.30;99.90;;;;;;4952219;29;21168;-60
2021/05/15 08:25:28;;;;;;;4.38;1.20;;;15.00;99.90;;;;;;4952341;29;20489;-50
2021/05/15 08:27:59;;;;;;;3.70;1.20;;;15.00;99.90;;;;;;4951094;29;20418;-51
2021/05/15 08:30:28;;;;;;;3.60;1.15;;;14.80;99.90;;;;;;4952526;29;20401;-50
2021/05/15 08:32:55;;;;;;;3.90;1.20;;;14.60;99.90;;;;;;4951649;28;20386;-51
2021/05/15 08:35:21;;;;;;;3.60;1.20;;;14.60;99.90;;;;;;4952305;29;20452;-50
2021/05/15 08:37:47;;;;;;;3.67;1.02;;;15.00;99.90;;;;;;4951453;29;20388;-51
2021/05/15 08:40:14;;;;;;;4.10;1.02;;;15.40;99.90;;;;;;4952493;29;20733;-50
2021/05/15 08:42:42;;;;;;;3.65;1.13;;;15.30;99.90;;;;;;4952103;29;20540;-63
2021/05/15 08:45:13;;;;;;;4.90;1.30;;;15.20;99.90;;;;;;4951945;29;20425;-50
2021/05/15 08:47:41;;;;;;;3.78;1.10;;;15.30;99.90;;;;;;4952431;29;20470;-50
2021/05/15 08:50:09;;;;;;;4.75;1.17;;;15.50;99.90;;;;;;4951480;29;20390;-50
2021/05/15 08:52:42;;;;;;;5.53;1.30;;;15.80;99.90;;;;;;4952214;29;20386;-50
2021/05/15 08:55:10;;;;;;;6.50;1.20;;;15.80;99.90;;;;;;4951638;29;20397;-50
2021/05/15 08:57:36;;;;;;;4.70;1.20;;;16.00;99.90;;;;;;4952153;29;20385;-50
2021/05/15 09:00:19;;;;;;;5.15;1.30;;;16.10;99.90;;;;;;4951194;29;20390;-50
2021/05/15 09:02:47;;;;;;;4.90;1.20;;;16.10;99.90;;;;;;4951288;29;20421;-58
2021/05/15 09:05:15;;;;;;;3.95;1.05;;;16.00;99.90;;;;;;4951419;28;20940;-50
2021/05/15 09:07:44;;;;;;;4.43;1.40;;;16.20;99.90;;;;;;4951411;28;20440;-63
2021/05/15 09:10:10;;;;;;;6.10;1.20;;;16.10;99.90;;;;;;4951758;28;20386;-51
2021/05/15 09:12:36;;;;;;;4.00;1.00;;;16.20;99.90;;;;;;4951733;28;20401;-50
2021/05/15 09:15:05;;;;;;;5.20;1.10;;;16.40;99.90;;;;;;4950975;28;20389;-50
2021/05/15 09:17:51;;;;;;;3.53;1.10;;;16.30;99.90;;;;;;4953322;28;20469;-52
2021/05/15 09:20:26;;;;;;;4.20;1.30;;;16.10;99.90;;;;;;4948976;28;20407;-51
2021/05/15 09:22:53;;;;;;;3.80;1.20;;;16.50;99.90;;;;;;4969585;28;20435;-51
2021/05/15 09:25:19;;;;;;;4.00;1.10;;;16.90;99.90;;;;;;4970687;28;20442;-51
2021/05/15 09:27:46;;;;;;;4.30;1.20;;;17.80;99.90;;;;;;4969459;28;20424;-64
2021/05/15 09:30:12;;;;;;;4.25;1.40;;;18.00;99.90;;;;;;4970900;28;20388;-50
2021/05/15 09:32:39;;;;;;;4.00;1.00;;;18.00;99.90;;;;;;4970880;28;20427;-50
2021/05/15 09:35:07;;;;;;;4.40;1.30;;;18.00;99.90;;;;;;4969785;28;20483;-50
2021/05/15 09:37:39;;;;;;;4.80;1.30;;;17.90;99.90;;;;;;4970339;28;20446;-50
2021/05/15 09:40:19;;;;;;;4.60;1.00;;;17.20;99.90;;;;;;4969743;28;20576;-50
2021/05/15 09:42:53;;;;;;;4.53;1.13;;;17.80;99.90;;;;;;4965535;28;20415;-62
2021/05/15 09:45:33;;;;;;;5.38;1.30;;;18.10;99.90;;;;;;4970538;28;20392;-50
2021/05/15 09:48:09;;;;;;;4.30;1.30;;;17.80;99.90;;;;;;4970136;28;20900;-50
2021/05/15 09:50:38;;;;;;;4.80;1.00;;;17.90;99.90;;;;;;4970579;28;20384;-51
2021/05/15 09:53:24;;;;;;;3.87;1.30;;;17.10;99.90;;;;;;4969605;28;20391;-55
2021/05/15 09:55:52;;;;;;;6.18;1.00;;;17.50;99.90;;;;;;4969201;28;20475;-50
2021/05/15 09:58:17;;;;;;;4.10;1.30;;;17.30;99.90;;;;;;4970479;28;20428;-50
2021/05/15 10:00:43;;;;;;;3.90;1.20;;;17.20;99.90;;;;;;4968637;28;20427;-64
2021/05/15 10:03:20;;;;;;;4.20;1.10;;;17.30;99.90;;;;;;4951071;29;20422;-50
2021/05/15 10:05:59;;;;;;;4.38;1.20;;;17.30;99.90;;;;;;4949017;29;20386;-51
2021/05/15 10:08:25;;;;;;;3.88;0.90;;;17.60;99.90;;;;;;4951213;29;20390;-51
2021/05/15 10:10:54;;;;;;;4.05;1.30;;;17.60;99.90;;;;;;4950578;29;20825;-51
2021/05/15 10:13:20;;;;;;;3.80;1.27;;;17.80;99.90;;;;;;4950941;29;20386;-50
2021/05/15 10:15:46;;;;;;;4.05;1.00;;;18.30;99.90;;;;;;4950427;29;20390;-51
2021/05/15 10:18:16;;;;;;;5.05;1.20;;;18.60;99.60;;;;;;4951209;29;21005;-51
2021/05/15 10:20:43;;;;;;;4.65;1.40;;;19.10;98.50;;;;;;4951306;29;20398;-63
2021/05/15 10:23:23;;;;;;;5.80;1.27;;;20.10;95.70;;;;;;4950802;29;20386;-51
2021/05/15 10:26:00;;;;;;;4.82;1.10;;;19.80;95.20;;;;;;4950434;29;20421;-51
2021/05/15 10:28:27;;;;;;;4.88;1.27;;;20.00;95.90;;;;;;4950901;29;20414;-51
2021/05/15 10:31:22;;;;;;;5.15;1.20;;;19.90;92.00;;;;;;4950608;29;20401;-55
2021/05/15 10:33:48;;;;;;;4.20;1.10;;;19.50;92.90;;;;;;4945998;29;20903;-50
2021/05/15 10:36:23;;;;;;;5.80;1.30;;;18.60;94.20;;;;;;4950807;29;20453;-51
2021/05/15 10:38:54;;;;;;;4.00;1.20;;;17.90;95.00;;;;;;4950412;29;20774;-50
2021/05/15 10:41:26;;;;;;;4.18;1.15;;;17.70;94.70;;;;;;4950842;29;20406;-50
2021/05/15 10:43:53;;;;;;;4.10;1.30;;;18.20;94.90;;;;;;4950111;29;20488;-55
2021/05/15 10:46:26;;;;;;;5.72;0.98;;;19.00;95.90;;;;;;4950804;29;20505;-53
2021/05/15 10:49:04;;;;;;;4.50;1.00;;;19.40;93.10;;;;;;4949987;29;20418;-53
2021/05/15 10:51:37;;;;;;;4.70;0.90;;;19.80;92.00;;;;;;4950718;29;20408;-53
2021/05/15 10:54:04;;;;;;;3.70;0.90;;;19.80;91.90;;;;;;4950396;29;20390;-50
2021/05/15 10:56:30;;;;;;;4.60;1.00;;;19.40;91.60;;;;;;4953855;28;20476;-50
2021/05/15 10:59:11;;;;;;;3.80;0.90;;;18.70;91.80;;;;;;4953010;29;20405;-54
2021/05/15 11:01:50;;;;;;;5.10;1.00;;;18.50;92.30;;;;;;4962509;28;20404;-50
2021/05/15 11:04:18;;;;;;;6.38;1.17;;;18.40;93.40;;;;;;4973132;28;20416;-50
2021/05/15 11:06:59;;;;;;;4.40;1.27;;;18.30;94.00;;;;;;4973017;28;20467;-62
2021/05/15 11:09:27;;;;;;;4.17;1.20;;;17.70;94.50;;;;;;4972903;28;20392;-50
2021/05/15 11:12:02;;;;;;;5.20;1.30;;;17.40;94.90;;;;;;4972151;28;20384;-50
2021/05/15 11:14:29;;;;;;;4.90;1.10;;;17.10;94.50;;;;;;4973595;28;20424;-49
2021/05/15 11:17:06;;;;;;;5.70;1.40;;;16.60;96.30;;;;;;4972142;28;20388;-50
2021/05/15 11:19:32;;;;;;;4.70;1.30;;;16.90;96.30;;;;;;4973219;28;20534;-56
2021/05/15 11:21:58;;;;;;;4.20;1.15;;;17.10;96.50;;;;;;4972355;28;20397;-50
2021/05/15 11:24:32;;;;;;;5.13;1.20;;;17.10;95.40;;;;;;4972694;28;20487;-50
2021/05/15 11:27:09;;;;;;;5.13;1.30;;;17.30;94.50;;;;;;4971213;28;20763;-53
2021/05/15 11:29:35;;;;;;;4.20;1.00;;;17.20;95.50;;;;;;4971495;28;20922;-50
2021/05/15 11:32:06;;;;;;;4.53;1.13;;;17.10;94.70;;;;;;4961677;28;20449;-51
2021/05/15 11:34:31;;;;;;;4.63;1.20;;;17.90;94.70;;;;;;4953230;29;20390;-50
2021/05/15 11:36:57;;;;;;;4.80;1.37;;;16.90;96.30;;;;;;4952319;29;20873;-49
2021/05/15 11:39:23;;;;;;;4.00;1.27;;;17.00;95.50;;;;;;4953592;29;20389;-50
2021/05/15 11:42:11;;;;;;;6.53;1.38;;;17.10;96.10;;;;;;4961830;28;20909;-51
2021/05/15 11:44:42;;;;;;;5.50;1.20;;;17.00;95.70;;;;;;4961467;28;20405;-49
2021/05/15 11:47:11;;;;;;;4.25;1.20;;;17.20;95.00;;;;;;4960469;28;20774;-50
2021/05/15 11:49:38;;;;;;;6.03;1.48;;;17.10;94.20;;;;;;4944507;28;20477;-50
2021/05/15 11:52:09;;;;;;;4.88;1.23;;;17.40;94.10;;;;;;4961243;28;20388;-50
2021/05/15 11:54:37;;;;;;;4.60;1.10;;;17.70;92.40;;;;;;4946138;28;20400;-50
2021/05/15 11:57:03;;;;;;;5.60;1.20;;;18.00;91.80;;;;;;4969606;28;20388;-58
2021/05/15 11:59:30;;;;;;;5.95;1.60;;;18.10;90.90;;;;;;4969614;28;20427;-50
2021/05/15 12:01:57;;;;;;;4.60;1.15;;;18.20;91.50;;;;;;4957151;28;20520;-53
2021/05/15 12:04:29;;;;;;;4.17;1.10;;;17.90;90.90;;;;;;4961574;28;20425;-50
2021/05/15 12:07:02;;;;;;;4.53;1.00;;;18.30;91.00;;;;;;4959783;28;20416;-50
2021/05/15 12:09:28;;;;;;;4.82;1.23;;;18.60;88.20;;;;;;4963066;28;20392;-50
2021/05/15 12:12:09;;;;;;;4.60;1.20;;;18.40;90.50;;;;;;4961966;28;20440;-50
2021/05/15 12:14:40;;;;;;;4.40;1.08;;;18.20;87.60;;;;;;4962417;28;20404;-49
2021/05/15 12:17:07;;;;;;;4.03;1.20;;;18.00;89.30;;;;;;4962151;28;20381;-50
2021/05/15 12:19:33;;;;;;;4.80;1.10;;;18.20;90.20;;;;;;4962171;28;20941;-50
2021/05/15 12:22:01;;;;;;;4.43;1.03;;;18.10;88.60;;;;;;4952740;28;20749;-54
2021/05/15 12:24:39;;;;;;;5.10;1.20;;;18.60;88.00;;;;;;4961457;28;20398;-50
2021/05/15 12:27:30;;;;;;;5.50;1.00;;;18.00;86.20;;;;;;4961840;28;20416;-51
2021/05/15 12:30:06;;;;;;;4.32;1.08;;;18.10;88.50;;;;;;4961698;28;20896;-50
2021/05/15 12:32:33;;;;;;;3.88;1.00;;;18.30;87.90;;;;;;4945053;28;20392;-50
2021/05/15 12:35:09;;;;;;;4.40;1.00;;;17.90;87.00;;;;;;4944302;28;20422;-50
2021/05/15 12:37:37;;;;;;;5.30;1.20;;;18.20;87.00;;;;;;4959880;28;20402;-50
2021/05/15 12:40:05;;;;;;;5.07;1.10;;;18.00;87.10;;;;;;4962809;28;20447;-50
2021/05/15 12:42:32;;;;;;;4.80;1.13;;;18.20;88.50;;;;;;4962116;28;20424;-52
2021/05/15 12:45:07;;;;;;;4.60;1.20;;;17.80;88.00;;;;;;4960330;28;20409;-50
2021/05/15 12:47:37;;;;;;;5.63;1.10;;;17.90;88.70;;;;;;4960432;28;20481;-50
2021/05/15 12:50:21;;;;;;;4.50;1.00;;;17.90;88.00;;;;;;4960306;28;20467;-50
2021/05/15 12:52:47;;;;;;;4.53;1.23;;;17.80;89.10;;;;;;4954381;28;20433;-63
2021/05/15 12:55:18;;;;;;;3.90;1.40;;;17.70;89.90;;;;;;4941751;28;20535;-51